Osceola, AR (72370)

3:59 AM CDT on August 30, 2014 (GMT -0500)
Gilt Edge TN | Change Station
CLOSE
Current Station
Personal Weather Station
Location: Gilt Edge, TN
Elevation: 276 ft
Nearby Weather Stations

Elev 276 ft 35.53 °N, 89.81 °W | Updated 7 minutes ago

Partly Cloudy
Partly Cloudy
72.3 °F
Feels Like 72.3 °F
N
0.0
Wind Variable Wind from NNE
Gusts 0.0 mph

Today
High -- | Low -- °F
--% Chance of Precip.
Yesterday
High -- | Low -- °F
Precip. -- in
6:30 AM 7:29 PM
Waxing Crescent, 20% visible
Pressure 29.98 in
Visibility 10.0 miles
Clouds Clear
Dew Point 71 °F
Humidity 97%
Rainfall 0.00 in
Snow Depth Not available.
UV 0.0 out of 12
Pollen 10.20 out of 12
Air Quality Not available.
Flu Activity Not available.
METAR KHKA 300853Z AUTO 00000KT 10SM CLR 23/23 A2999 RMK AO2 SLP151 T02330228 55006

More Conditions Fewer Conditions

Pressure 29.98 in
Visibility 10.0 miles
Clouds Clear
Dew Point 71 °F
Humidity 97%
Rainfall 0.00 in
Snow Depth Not available.
UV 0.0 out of 12
Pollen 10.20 out of 12
Air Quality Not available.
Flu Activity Not available.
METAR KHKA 300853Z AUTO 00000KT 10SM CLR 23/23 A2999 RMK AO2 SLP151 T02330228 55006

More Conditions Fewer Conditions

10-Day Weather Forecast

Almanac

Astronomy

Aug. 30, 2014 Rise Set
Actual Time 6:30 AM CDT 7:29 PM CDT
Civil Twilight 6:04 AM CDT 7:56 PM CDT
Nautical Twilight 5:33 AM CDT 8:27 PM CDT
Astronomical Twilight 5:00 AM CDT 8:59 PM CDT
Moon 11:07 AM CDT 10:15 PM CDT
Length of Visible Light 13h 51m
Length of Day
12h 59m
Tomorrow will be 2m 9s shorter.
Waxing Crescent, 20% of the Moon is Illuminated
Today
Waxing Crescent
Sep 2
First Quarter
Sep 8
Full
Sep 15
Last Quarter
Sep 24
New

Today's Extremes

State Highs State Lows

Community

WunderPhotos

Upload Photos

1,748,474 photos uploaded!

Nearby

Snow Depth

Station Depth Elevation
No new snow has been reported.

Earthquake Activity

City Distance Mag. Time & Date
No recent earthquake activity has been reported nearby.
Minimum magnitude displayed is 2.5.

Coastal Water Temperatures

Place Temperature
No Stations Reporting

Nearby Weather Stations